Time;durP1;ratioP1;P1;durP2;ratioP2;P2;SDS_P1;SDS_P2;PMS_P1;PMS_P2;Temp;Humidity;BMP_temperature;BMP_pressure;BME280_temperature;BME280_humidity;BME280_pressure;Samples;Min_cycle;Max_cycle;Signal;HPM_P1;HPM_P2
2022/07/09 08:22:30;;;;;;;4.22;1.90;;;32.00;90.00;;;;;;4938084;23;20241;-72
2022/07/09 08:24:56;;;;;;;3.08;2.00;;;32.00;90.20;;;;;;4909704;29;20206;-72
2022/07/09 08:27:23;;;;;;;4.15;1.63;;;32.30;90.20;;;;;;4904284;29;20229;-72
2022/07/09 08:29:50;;;;;;;3.85;1.92;;;32.40;88.90;;;;;;4918560;29;20226;-72
2022/07/09 08:32:17;;;;;;;3.13;1.75;;;32.00;89.50;;;;;;4919479;29;20702;-72
2022/07/09 08:34:44;;;;;;;3.72;1.52;;;32.30;90.40;;;;;;4919643;29;20238;-72
2022/07/09 08:37:10;;;;;;;4.20;1.67;;;32.20;88.90;;;;;;4919429;29;20214;-72
2022/07/09 08:39:38;;;;;;;2.35;1.73;;;31.70;90.20;;;;;;4918958;29;20277;-73
2022/07/09 08:42:09;;;;;;;2.88;1.58;;;32.00;90.30;;;;;;4917714;29;20736;-73
2022/07/09 08:44:39;;;;;;;2.72;1.75;;;31.90;89.70;;;;;;4918979;29;20213;-72
2022/07/09 08:47:06;;;;;;;4.57;1.90;;;31.90;90.20;;;;;;4918931;29;20213;-70
2022/07/09 08:49:34;;;;;;;5.22;2.15;;;31.60;90.50;;;;;;4918925;29;20572;-71
2022/07/09 08:52:03;;;;;;;3.15;1.90;;;31.60;90.20;;;;;;4918789;29;20209;-71
2022/07/09 08:54:30;;;;;;;2.65;1.70;;;31.90;90.20;;;;;;4918471;29;20214;-69
2022/07/09 08:56:59;;;;;;;3.25;1.88;;;32.00;90.40;;;;;;4919011;29;20210;-70
2022/07/09 08:59:26;;;;;;;3.85;2.13;;;32.30;90.00;;;;;;4918726;29;20229;-70
2022/07/09 09:01:52;;;;;;;4.28;2.47;;;32.10;90.00;;;;;;4919104;29;20236;-70
2022/07/09 09:04:20;;;;;;;3.15;2.13;;;32.00;89.10;;;;;;4918702;29;20214;-70
2022/07/09 09:06:46;;;;;;;4.47;2.80;;;32.00;90.30;;;;;;4918549;29;20568;-70
2022/07/09 09:09:19;;;;;;;5.75;2.78;;;31.70;90.70;;;;;;4918307;29;20230;-70
2022/07/09 09:11:49;;;;;;;2.67;2.05;;;31.70;90.10;;;;;;4918499;29;20302;-69
2022/07/09 09:14:21;;;;;;;4.88;2.20;;;31.50;90.30;;;;;;4918873;29;20213;-70
2022/07/09 09:16:48;;;;;;;3.75;2.28;;;31.00;90.70;;;;;;4918381;29;20668;-70
2022/07/09 09:19:15;;;;;;;3.17;2.30;;;30.30;92.20;;;;;;4918292;29;20734;-73
2022/07/09 09:21:42;;;;;;;3.22;2.33;;;29.80;93.00;;;;;;4918203;29;20673;-70
2022/07/09 09:24:09;;;;;;;3.10;2.40;;;29.10;92.70;;;;;;4918241;29;20210;-71
2022/07/09 09:26:37;;;;;;;6.38;2.35;;;29.00;93.60;;;;;;4918478;29;20218;-70
2022/07/09 09:29:05;;;;;;;3.38;2.13;;;29.10;93.80;;;;;;4918283;29;20755;-70
2022/07/09 09:31:35;;;;;;;2.67;1.95;;;29.50;93.60;;;;;;4918400;29;20257;-70
2022/07/09 09:34:12;;;;;;;4.72;1.80;;;29.70;93.10;;;;;;4918545;29;20227;-70
2022/07/09 09:36:40;;;;;;;2.80;1.80;;;30.30;93.00;;;;;;4918351;29;20247;-70
2022/07/09 09:39:18;;;;;;;3.45;1.90;;;30.40;93.10;;;;;;4917859;29;20732;-71
2022/07/09 09:41:46;;;;;;;2.50;1.60;;;30.00;92.20;;;;;;4918303;29;20568;-70
2022/07/09 09:44:15;;;;;;;3.00;1.48;;;30.20;93.10;;;;;;4918326;29;20252;-70
2022/07/09 09:46:44;;;;;;;2.40;1.50;;;30.50;92.20;;;;;;4918063;29;20699;-70
2022/07/09 09:49:14;;;;;;;1.98;1.52;;;30.20;92.10;;;;;;4917995;29;20271;-70
2022/07/09 09:51:50;;;;;;;4.50;1.88;;;30.60;92.70;;;;;;4917824;29;20216;-70
2022/07/09 09:54:18;;;;;;;2.85;1.77;;;30.50;92.50;;;;;;4917951;29;20209;-70
2022/07/09 09:56:45;;;;;;;3.45;1.85;;;30.70;91.90;;;;;;4917780;29;20672;-70
2022/07/09 09:59:12;;;;;;;4.38;2.50;;;30.50;92.00;;;;;;4918026;29;20239;-70
2022/07/09 10:01:41;;;;;;;3.53;2.47;;;30.40;92.00;;;;;;4917721;29;20661;-70
2022/07/09 10:04:11;;;;;;;5.97;4.45;;;29.90;92.50;;;;;;4917561;29;20214;-70
2022/07/09 10:06:38;;;;;;;5.28;3.53;;;29.60;92.30;;;;;;4917942;29;20209;-70
2022/07/09 10:09:07;;;;;;;3.70;2.65;;;29.10;93.80;;;;;;4917580;29;20256;-69
2022/07/09 10:11:40;;;;;;;4.55;3.20;;;28.50;94.90;;;;;;4917821;29;20213;-70
2022/07/09 10:14:08;;;;;;;5.75;3.70;;;28.30;95.60;;;;;;4917267;29;20731;-69
2022/07/09 10:16:37;;;;;;;7.57;4.20;;;28.00;95.50;;;;;;4917302;29;20692;-69
2022/07/09 10:19:04;;;;;;;6.25;5.00;;;28.00;95.70;;;;;;4917288;29;20248;-70
2022/07/09 10:21:37;;;;;;;7.82;4.35;;;28.20;96.20;;;;;;4917747;29;20314;-69
2022/07/09 10:24:05;;;;;;;6.80;4.50;;;28.20;96.20;;;;;;4917559;29;20293;-69
2022/07/09 10:26:46;;;;;;;8.68;6.15;;;28.20;97.00;;;;;;4917674;29;20219;-69
2022/07/09 10:29:22;;;;;;;7.18;5.22;;;28.10;95.90;;;;;;4916997;29;20233;-69
2022/07/09 10:31:50;;;;;;;7.15;5.57;;;27.80;96.90;;;;;;4917607;29;20213;-69
2022/07/09 10:34:50;;;;;;;12.75;8.40;;;27.30;97.90;;;;;;4917563;29;20216;-69
2022/07/09 10:37:18;;;;;;;11.35;8.48;;;27.30;97.80;;;;;;4917156;29;20237;-69
2022/07/09 10:39:54;;;;;;;11.50;9.00;;;26.90;99.00;;;;;;4916619;29;20233;-69
2022/07/09 10:42:23;;;;;;;15.23;9.02;;;26.80;99.20;;;;;;4917223;29;20220;-69
2022/07/09 10:44:51;;;;;;;11.55;8.32;;;26.50;99.20;;;;;;4916768;29;20291;-69
2022/07/09 10:47:18;;;;;;;10.40;7.38;;;26.60;99.50;;;;;;4917145;29;20209;-69
2022/07/09 10:49:45;;;;;;;10.90;7.75;;;26.50;99.20;;;;;;4916862;29;20233;-69
2022/07/09 10:52:12;;;;;;;9.32;6.32;;;26.30;99.80;;;;;;4916944;29;20213;-69
2022/07/09 10:54:48;;;;;;;11.45;6.53;;;26.20;99.10;;;;;;4916811;29;20665;-69
2022/07/09 10:57:15;;;;;;;9.18;6.05;;;26.20;99.30;;;;;;4916484;29;20711;-69
2022/07/09 10:59:47;;;;;;;11.23;6.70;;;26.30;99.40;;;;;;4916716;29;20600;-69
2022/07/09 11:02:19;;;;;;;8.88;5.97;;;26.10;99.30;;;;;;4916710;29;20217;-69
2022/07/09 11:04:51;;;;;;;7.40;5.43;;;26.00;99.90;;;;;;4916717;29;20218;-69
2022/07/09 11:07:22;;;;;;;6.93;5.20;;;26.10;99.90;;;;;;4916665;29;20744;-69
2022/07/09 11:09:52;;;;;;;7.80;4.50;;;26.10;99.90;;;;;;4916619;29;20266;-69
2022/07/09 11:12:19;;;;;;;8.32;4.63;;;26.20;99.90;;;;;;4916538;29;20214;-69
2022/07/09 11:14:47;;;;;;;5.97;3.85;;;26.30;99.90;;;;;;4916661;29;20541;-69
2022/07/09 11:17:18;;;;;;;5.63;3.35;;;26.40;99.90;;;;;;4916249;29;20265;-69
2022/07/09 11:19:45;;;;;;;3.42;2.33;;;26.60;99.90;;;;;;4916642;29;20236;-69
2022/07/09 11:22:12;;;;;;;2.88;1.70;;;26.50;99.90;;;;;;4916689;29;20228;-69
2022/07/09 11:24:39;;;;;;;2.13;1.50;;;26.10;99.90;;;;;;4916519;29;20603;-69
2022/07/09 11:27:08;;;;;;;4.57;1.80;;;25.70;99.90;;;;;;4916820;29;20209;-69
2022/07/09 11:29:38;;;;;;;3.22;1.95;;;25.50;99.90;;;;;;4916576;29;20229;-69
2022/07/09 11:32:06;;;;;;;2.42;1.77;;;25.50;99.90;;;;;;4916612;29;20573;-69
2022/07/09 11:34:32;;;;;;;2.05;1.20;;;25.80;99.90;;;;;;4916588;29;20216;-69
2022/07/09 11:37:00;;;;;;;3.08;1.08;;;25.80;99.90;;;;;;4916778;29;20243;-69
2022/07/09 11:39:29;;;;;;;1.13;0.82;;;25.70;99.60;;;;;;4916368;29;20230;-69
2022/07/09 11:41:58;;;;;;;2.20;0.80;;;25.60;99.90;;;;;;4916274;29;20205;-69
2022/07/09 11:44:27;;;;;;;0.70;0.70;;;25.60;99.80;;;;;;4916648;29;20308;-69
2022/07/09 11:47:08;;;;;;;0.82;0.70;;;25.50;99.40;;;;;;4916673;29;20220;-69
2022/07/09 11:49:36;;;;;;;0.90;0.68;;;25.50;99.30;;;;;;4916580;29;20240;-69
2022/07/09 11:52:04;;;;;;;1.23;0.60;;;25.50;99.90;;;;;;4916439;29;20212;-69
2022/07/09 11:54:32;;;;;;;0.60;0.60;;;25.60;99.90;;;;;;4916615;29;20213;-69
2022/07/09 11:56:58;;;;;;;1.63;0.70;;;25.50;99.90;;;;;;4919856;29;20264;-68
2022/07/09 11:59:32;;;;;;;1.05;0.80;;;25.20;99.90;;;;;;4920086;29;20236;-69
2022/07/09 12:02:00;;;;;;;1.48;0.60;;;25.00;99.50;;;;;;4919896;29;20304;-69
2022/07/09 12:04:31;;;;;;;1.23;0.60;;;25.10;99.90;;;;;;4919815;29;20673;-69
2022/07/09 12:06:58;;;;;;;0.60;0.60;;;25.20;99.90;;;;;;4919696;29;20264;-69
2022/07/09 12:09:30;;;;;;;0.60;0.60;;;25.40;99.90;;;;;;4919522;29;20240;-69
2022/07/09 12:11:57;;;;;;;1.15;0.70;;;25.50;99.80;;;;;;4919810;29;20549;-69
2022/07/09 12:14:24;;;;;;;1.02;0.60;;;25.50;99.40;;;;;;4919718;29;20336;-69
2022/07/09 12:16:52;;;;;;;1.40;0.60;;;25.50;99.20;;;;;;4919601;29;20238;-69
2022/07/09 12:19:19;;;;;;;0.65;0.50;;;25.50;99.10;;;;;;4919688;29;20738;-69
2022/07/09 12:21:46;;;;;;;0.65;0.40;;;25.50;99.00;;;;;;4919625;29;20308;-69
2022/07/09 12:24:14;;;;;;;3.25;0.60;;;25.30;98.70;;;;;;4919018;29;20737;-68
2022/07/09 12:26:41;;;;;;;0.65;0.50;;;25.10;98.60;;;;;;4919237;29;20236;-69
2022/07/09 12:29:07;;;;;;;2.85;0.50;;;24.80;99.50;;;;;;4918712;29;20719;-69
2022/07/09 12:31:36;;;;;;;0.77;0.52;;;24.80;99.50;;;;;;4917635;29;20260;-69
2022/07/09 12:34:05;;;;;;;3.03;0.93;;;24.90;99.90;;;;;;4918806;29;20221;-69
2022/07/09 12:36:32;;;;;;;0.52;0.40;;;25.20;99.40;;;;;;4919130;29;20237;-69
2022/07/09 12:38:59;;;;;;;1.30;0.43;;;25.10;99.50;;;;;;4918668;29;20233;-68
2022/07/09 12:41:26;;;;;;;1.05;0.50;;;25.00;99.60;;;;;;4918732;29;20692;-69
2022/07/09 12:43:53;;;;;;;0.93;0.38;;;24.90;99.20;;;;;;4919030;29;20217;-69
2022/07/09 12:46:19;;;;;;;2.17;0.57;;;24.70;98.90;;;;;;4918935;29;20220;-69
2022/07/09 12:48:46;;;;;;;0.75;0.40;;;24.40;98.90;;;;;;4919103;29;20209;-69
2022/07/09 12:51:14;;;;;;;0.60;0.40;;;24.20;99.90;;;;;;4919117;29;20668;-69
2022/07/09 12:53:41;;;;;;;0.95;0.47;;;24.00;99.40;;;;;;4919180;29;20237;-69
2022/07/09 12:56:08;;;;;;;0.63;0.40;;;24.00;99.80;;;;;;4918403;29;20276;-69
2022/07/09 12:58:35;;;;;;;3.25;0.40;;;24.10;99.60;;;;;;4918398;29;20256;-68
2022/07/09 13:01:02;;;;;;;1.17;0.50;;;24.00;99.20;;;;;;4918806;29;20229;-69
2022/07/09 13:03:29;;;;;;;0.85;0.40;;;24.20;99.30;;;;;;4919144;29;20209;-69
2022/07/09 13:05:56;;;;;;;1.15;0.30;;;24.10;99.10;;;;;;4918673;29;20213;-68
2022/07/09 13:08:25;;;;;;;0.75;0.45;;;24.30;99.30;;;;;;4918822;29;20210;-69
2022/07/09 13:10:51;;;;;;;1.60;0.50;;;24.10;98.50;;;;;;4918511;29;20225;-69
2022/07/09 13:13:18;;;;;;;1.02;0.40;;;24.00;98.90;;;;;;4918516;29;20210;-69
2022/07/09 13:15:45;;;;;;;1.33;0.50;;;23.80;98.90;;;;;;4918284;29;20216;-69
2022/07/09 13:18:12;;;;;;;0.52;0.30;;;23.80;99.60;;;;;;4918701;29;20584;-69
2022/07/09 13:20:39;;;;;;;0.60;0.50;;;23.70;99.40;;;;;;4918613;29;20240;-69
2022/07/09 13:23:06;;;;;;;0.85;0.40;;;23.70;98.90;;;;;;4918577;29;20229;-69
2022/07/09 13:25:34;;;;;;;0.60;0.40;;;23.70;99.40;;;;;;4918296;29;20233;-69
2022/07/09 13:28:01;;;;;;;1.08;0.40;;;23.60;98.80;;;;;;4918479;29;20216;-69
2022/07/09 13:30:28;;;;;;;2.03;0.40;;;23.70;98.90;;;;;;4918313;29;20233;-69
2022/07/09 13:32:55;;;;;;;0.82;0.50;;;23.60;98.50;;;;;;4918456;29;20209;-68
2022/07/09 13:35:24;;;;;;;0.60;0.50;;;23.50;98.70;;;;;;4918315;29;20212;-68
2022/07/09 13:37:51;;;;;;;0.60;0.40;;;23.60;99.10;;;;;;4918244;29;20332;-68
2022/07/09 13:40:17;;;;;;;2.78;0.50;;;23.70;99.20;;;;;;4918101;29;20230;-69
2022/07/09 13:42:46;;;;;;;0.47;0.40;;;23.70;98.70;;;;;;4918253;29;20209;-69
2022/07/09 13:45:12;;;;;;;0.50;0.40;;;23.60;98.50;;;;;;4917785;29;20214;-69
2022/07/09 13:47:40;;;;;;;0.50;0.40;;;23.70;99.20;;;;;;4917751;29;20214;-69
2022/07/09 13:50:07;;;;;;;2.10;0.50;;;23.80;98.40;;;;;;4917641;29;20230;-69
2022/07/09 13:52:34;;;;;;;0.93;0.70;;;23.70;98.60;;;;;;4917747;29;20210;-68
2022/07/09 13:55:01;;;;;;;0.40;0.40;;;23.70;98.60;;;;;;4917444;29;20210;-69
2022/07/09 13:57:28;;;;;;;0.98;0.50;;;23.60;98.30;;;;;;4917351;29;20241;-69
2022/07/09 13:59:56;;;;;;;0.77;0.50;;;23.80;99.00;;;;;;4917587;29;20233;-69
2022/07/09 14:02:23;;;;;;;0.68;0.47;;;23.80;98.60;;;;;;4917388;29;20661;-69
2022/07/09 14:04:50;;;;;;;0.70;0.40;;;23.70;98.50;;;;;;4917354;29;20209;-69
2022/07/09 14:07:17;;;;;;;0.40;0.40;;;23.60;98.70;;;;;;4917763;29;20205;-69
2022/07/09 14:09:44;;;;;;;0.80;0.38;;;23.50;98.40;;;;;;4917422;29;20236;-69
2022/07/09 14:12:10;;;;;;;0.30;0.30;;;23.50;97.80;;;;;;4909547;29;20206;-71
2022/07/09 14:14:37;;;;;;;1.30;0.95;;;23.50;98.10;;;;;;4917063;29;20212;-71
2022/07/09 14:17:06;;;;;;;1.10;0.50;;;23.70;98.40;;;;;;4917050;29;20241;-71
2022/07/09 14:19:32;;;;;;;0.60;0.50;;;23.80;98.60;;;;;;4916672;29;20231;-71
